Historyczne dane pomiarowe

Dodano dane terminowe – wersja testowa.

Dane z okresu 1951-2019

Wersja bazy: 1.34 [2019-03-16, lista zmian], aktualizacja planowana na 2019-04-15

Dane meteo z obszaru Polski uzyskane na podstawie danych udostępnionych przez Instytut Meteorologii i Gospodarki Wodnej – Państwowy Instytut Badawczy.

 

Wybierz Datę:    

       

TemperaturaWilgotnośćWiatrCiśnienieOpadyŚniegCzas trwania zjawisk
 Stacja t tx tn tng RH VA  wxwx mslp ppp RRR   cm mm wxwxwxwxwxwxwx
2019-06-29 20.2 28.3 8.2 7.2 43.3- 1.7 3.0---- 0.0------------
2019-06-28 18.4 25.9 11.4 11.6 65.5- 5.3 5.0---- 0.0------------
2019-06-27 22.7 31.8 18.6 18.8 64.8- 5.0 6.0---- 0.0------------
2019-06-26 27.8 35.8 18.6 18.8 56.5- 1.0 3.7---- 0.0------------
2019-06-25 23.7 31.7 12.5 11.4 51.0- 2.0 3.7---- 0.0------------
2019-06-24 21.2 29.2 12.1 11.9 53.8- 1.3 2.0---- 0.0------------
2019-06-23 19.8 26.3 11.5 11.4 50.3- 5.7 2.7---- 0.0------------
2019-06-22 20.5 26.5 14.4 14.8 62.8- 5.3 2.0---- 0.0------------
2019-06-21 22.8 30.3 15.5 15.3 69.3- 5.3 3.0---- 1.9------------
2019-06-20 23.6 30.6 16.0 16.3 69.8- 5.7 2.3---- 0.0------------
2019-06-19 21.6 30.6 14.1 13.8 73.3- 5.7 3.3---- 3.5------------
2019-06-18 20.0 27.2 12.0 11.4 61.3- 4.7 2.0---- 0.0------------
2019-06-17 19.3 25.9 12.7 13.1 63.5- 2.3 2.3---- 0.0------------
2019-06-16 22.7 27.3 18.3 18.3 70.5- 6.3 2.7---- 0.0------------
2019-06-15 24.6 32.2 15.6 17.1 75.0- 2.3 3.3---- 0.0------------
2019-06-14 22.6 29.2 16.1 16.8 79.8- 4.3 2.3---- 0.0------------
2019-06-13 24.5 34.3 18.1 18.0 67.8- 3.7 2.3---- 18.7------------
2019-06-12 25.4 33.4 16.1 14.3 55.0- 0.3 4.0---- 0.0------------
2019-06-11 26.1 34.4 18.5 18.3 60.8- 1.3 3.7---- 0.0------------
2019-06-10 22.3 31.2 11.5 9.9 58.3- 3.0 5.0---- 0.0------------
2019-06-09 20.1 27.1 11.9 8.4 49.0- 0.7 2.3---- 0.0------------
2019-06-08 21.2 29.2 12.0 11.4 65.8- 4.3 1.3---- 0.0------------
2019-06-07 21.3 27.9 13.7 12.9 64.8- 3.7 2.0---- 0.0------------
2019-06-06 21.7 29.1 13.2 11.7 64.0- 3.7 4.0---- 0.0------------
2019-06-05 22.0 29.7 12.5 11.5 61.8- 2.0 4.3---- 0.0------------
2019-06-04 21.4 29.2 10.5 9.2 59.0- 1.3 3.3---- 0.0------------
2019-06-03 19.5 27.4 10.2 8.5 69.3- 1.0 1.7---- 0.0------------
2019-06-02 20.2 27.8 10.0 9.8 72.5- 3.7 3.0---- 0.0------------
2019-06-01 17.8 25.6 4.9 11.9 72.0- 4.7 2.3---- 0.0------------
2019-05-31 16.8 25.6 4.9 2.9 55.3- 1.7 1.3---- 0.0------------
2019-05-30 12.5 19.5 3.5 1.0 52.8- 5.0 2.0---- 0.0------------
2019-05-29 12.5 16.9 8.7 9.3 83.8- 7.3 3.3---- 0.8------------
2019-05-28 18.2 24.1 13.7 14.3 82.3- 6.3 3.3---- 8.5------------
2019-05-27 20.0 26.3 11.5 9.5 59.0- 5.0 5.0---- 1.9------------
2019-05-26 15.8 21.5 7.9 6.4 59.0- 4.7 1.7---- 0.0------------
2019-05-25 16.9 24.7 7.2 5.0 55.5- 4.3 2.3---- 0.0------------
2019-05-24 15.9 21.6 10.9 11.4 70.0- 5.7 1.7---- 0.0------------
2019-05-23 14.8 17.1 12.2 11.9 88.8- 8.0 4.3---- 3.5------------
2019-05-22 15.1 20.4 9.6 8.8 84.5- 7.3 5.3---- 0.0------------
2019-05-21 16.9 23.0 11.8 10.9 80.3- 6.7 3.0---- 1.0------------
2019-05-20 19.2 25.7 10.9 9.4 73.0- 6.7 5.0---- 0.0------------
2019-05-19 17.6 23.9 13.1 12.3 89.0- 7.3 4.3---- 0.0------------
2019-05-18 17.5 25.0 10.1 8.9 81.0- 5.0 1.7---- 1.1------------
2019-05-17 15.6 21.1 11.0 11.1 90.0- 6.7 0.7---- 2.6------------
2019-05-16 13.2 16.9 9.1 9.3 91.5- 8.0 1.7---- 3.4------------
2019-05-15 8.7 10.5 5.8 5.5 96.0- 8.0 2.3---- 5.5------------
2019-05-14 6.4 9.5 3.5 4.0 93.0- 8.0 2.7---- 10.0------------
2019-05-13 8.7 13.0 5.3 5.9 82.8- 8.0 2.3---- 1.3------------
2019-05-12 14.2 23.0 10.1 7.9 77.0- 7.7 2.7---- 6.5------------
2019-05-11 14.5 20.6 8.1 6.4 76.5- 4.7 2.3---- 0.0------------
2019-05-10 12.5 18.9 6.3 7.1 81.3- 6.3 3.0---- 0.3------------
2019-05-09 10.6 16.8 6.3 5.9 74.0- 8.0 4.3---- 1.1------------
2019-05-08 7.8 16.3 -2.9 -4.5 66.5- 4.0 3.0---- 0.0------------
2019-05-07 8.7 15.4 2.0 0.8 67.3- 3.0 2.3---- 0.0------------
2019-05-06 8.2 14.4 1.8 -1.5 60.8- 6.3 3.3---- 0.0------------
2019-05-05 7.3 12.6 2.2 3.4 75.5- 6.7 3.3---- 0.0------------
2019-05-04 9.5 16.4 2.7 0.5 69.5- 6.0 2.7---- 0.0------------
2019-05-03 9.8 15.5 6.3 5.0 69.8- 5.3 3.3---- 0.0------------
2019-05-02 11.2 15.9 8.1 8.0 73.8- 4.3 5.0---- 0.0------------
2019-05-01 12.1 19.6 4.6 4.0 63.3- 3.3 2.0---- 0.0------------
144.7 ms

 

Źródłem pochodzenia danych jest Instytut Meteorologii i Gospodarki Wodnej – Państwowy Instytut Badawczy. Dane Instytutu Meteorologii i Gospodarki Wodnej – Państwowego Instytutu Badawczego zostały przetworzone.

Dane źródłowe można odnaleźć na stronie https://dane.imgw.pl